Terminal Aerodrome Forecast
Issued by NWS Tulsa, OK

Home | Current Version | Previous Version | Text Only | Print | Product List | Glossary On
Versions: 1 2 3 4 5 6 7 8 9 10 11 12 13 14 15 16 17 18
000
FTUS44 KTSA 171700
TAFTUL
TAF
KTUL 171737Z 1718/1818 21010KT P6SM SCT050 SCT250
     FM180100 19007KT P6SM SCT050 BKN250
     FM180900 16005KT 5SM BR SCT020
     FM181400 15006KT P6SM SCT050=

USA.gov is the U.S. government's official web portal to all federal, state and local government web resources and services.